sensor_id;sensor_type;location;lat;lon;timestamp;P1;durP1;ratioP1;P2;durP2;ratioP2
41329;SDS011;34792;52.154;10.374;2022-09-30T00:01:32;14.07;;;5.38;;
41329;SDS011;34792;52.154;10.374;2022-09-30T00:03:58;9.20;;;4.88;;
41329;SDS011;34792;52.154;10.374;2022-09-30T00:06:25;6.25;;;4.60;;
41329;SDS011;34792;52.154;10.374;2022-09-30T00:08:52;8.13;;;4.40;;
41329;SDS011;34792;52.154;10.374;2022-09-30T00:11:19;7.28;;;4.72;;
41329;SDS011;34792;52.154;10.374;2022-09-30T00:13:49;7.40;;;3.92;;
41329;SDS011;34792;52.154;10.374;2022-09-30T00:16:16;6.35;;;3.80;;
41329;SDS011;34792;52.154;10.374;2022-09-30T00:18:43;9.30;;;5.28;;
41329;SDS011;34792;52.154;10.374;2022-09-30T00:21:09;7.15;;;4.38;;
41329;SDS011;34792;52.154;10.374;2022-09-30T00:23:36;14.27;;;4.10;;
41329;SDS011;34792;52.154;10.374;2022-09-30T00:26:03;9.05;;;5.20;;
41329;SDS011;34792;52.154;10.374;2022-09-30T00:28:31;11.10;;;4.22;;
41329;SDS011;34792;52.154;10.374;2022-09-30T00:30:57;13.18;;;4.95;;
41329;SDS011;34792;52.154;10.374;2022-09-30T00:33:24;6.47;;;3.80;;
41329;SDS011;34792;52.154;10.374;2022-09-30T00:35:49;6.55;;;3.80;;
41329;SDS011;34792;52.154;10.374;2022-09-30T00:38:15;7.53;;;4.55;;
41329;SDS011;34792;52.154;10.374;2022-09-30T00:40:41;9.35;;;3.85;;
41329;SDS011;34792;52.154;10.374;2022-09-30T00:43:12;6.00;;;3.95;;
41329;SDS011;34792;52.154;10.374;2022-09-30T00:45:41;7.72;;;5.22;;
41329;SDS011;34792;52.154;10.374;2022-09-30T00:48:22;6.15;;;4.60;;
41329;SDS011;34792;52.154;10.374;2022-09-30T00:51:00;8.95;;;4.68;;
41329;SDS011;34792;52.154;10.374;2022-09-30T00:53:28;6.38;;;3.83;;
41329;SDS011;34792;52.154;10.374;2022-09-30T00:58:39;9.45;;;3.65;;
41329;SDS011;34792;52.154;10.374;2022-09-30T01:01:10;8.18;;;4.45;;
41329;SDS011;34792;52.154;10.374;2022-09-30T01:06:34;8.57;;;4.00;;
41329;SDS011;34792;52.154;10.374;2022-09-30T01:09:00;9.50;;;4.43;;
41329;SDS011;34792;52.154;10.374;2022-09-30T01:11:27;9.60;;;4.60;;
41329;SDS011;34792;52.154;10.374;2022-09-30T01:13:53;7.35;;;3.42;;
41329;SDS011;34792;52.154;10.374;2022-09-30T01:38:15;6.97;;;3.50;;
41329;SDS011;34792;52.154;10.374;2022-09-30T01:44:38;6.13;;;3.85;;
41329;SDS011;34792;52.154;10.374;2022-09-30T01:47:45;6.47;;;3.67;;
41329;SDS011;34792;52.154;10.374;2022-09-30T01:55:29;6.25;;;2.75;;
41329;SDS011;34792;52.154;10.374;2022-09-30T01:57:59;4.60;;;2.80;;
41329;SDS011;34792;52.154;10.374;2022-09-30T02:00:26;7.57;;;3.55;;
41329;SDS011;34792;52.154;10.374;2022-09-30T02:02:55;5.90;;;3.63;;
41329;SDS011;34792;52.154;10.374;2022-09-30T02:08:37;7.80;;;3.65;;
41329;SDS011;34792;52.154;10.374;2022-09-30T02:11:11;6.32;;;2.92;;
41329;SDS011;34792;52.154;10.374;2022-09-30T02:16:38;6.38;;;3.42;;
41329;SDS011;34792;52.154;10.374;2022-09-30T02:21:36;4.88;;;2.95;;
41329;SDS011;34792;52.154;10.374;2022-09-30T02:24:05;7.03;;;3.47;;
41329;SDS011;34792;52.154;10.374;2022-09-30T02:26:35;7.32;;;3.03;;
41329;SDS011;34792;52.154;10.374;2022-09-30T02:29:04;7.78;;;4.00;;
41329;SDS011;34792;52.154;10.374;2022-09-30T02:31:38;5.53;;;3.88;;
41329;SDS011;34792;52.154;10.374;2022-09-30T02:34:07;6.93;;;3.08;;
41329;SDS011;34792;52.154;10.374;2022-09-30T02:36:38;5.18;;;3.95;;
41329;SDS011;34792;52.154;10.374;2022-09-30T02:39:11;9.13;;;4.03;;
41329;SDS011;34792;52.154;10.374;2022-09-30T02:41:42;4.40;;;2.92;;
41329;SDS011;34792;52.154;10.374;2022-09-30T02:44:10;6.03;;;3.97;;
41329;SDS011;34792;52.154;10.374;2022-09-30T02:46:43;6.10;;;3.70;;
41329;SDS011;34792;52.154;10.374;2022-09-30T02:49:39;4.30;;;3.20;;
41329;SDS011;34792;52.154;10.374;2022-09-30T02:52:12;6.22;;;4.03;;
41329;SDS011;34792;52.154;10.374;2022-09-30T02:57:54;6.35;;;3.45;;
41329;SDS011;34792;52.154;10.374;2022-09-30T03:00:22;8.07;;;3.88;;
41329;SDS011;34792;52.154;10.374;2022-09-30T03:02:48;3.15;;;2.05;;
41329;SDS011;34792;52.154;10.374;2022-09-30T03:05:16;5.25;;;3.53;;
41329;SDS011;34792;52.154;10.374;2022-09-30T03:07:42;5.90;;;3.00;;
41329;SDS011;34792;52.154;10.374;2022-09-30T03:10:11;8.60;;;2.75;;
41329;SDS011;34792;52.154;10.374;2022-09-30T03:23:45;3.97;;;2.88;;
41329;SDS011;34792;52.154;10.374;2022-09-30T03:26:37;4.50;;;2.65;;
41329;SDS011;34792;52.154;10.374;2022-09-30T03:29:13;4.43;;;2.35;;
41329;SDS011;34792;52.154;10.374;2022-09-30T03:42:36;5.78;;;2.58;;
41329;SDS011;34792;52.154;10.374;2022-09-30T03:45:39;11.38;;;3.13;;
41329;SDS011;34792;52.154;10.374;2022-09-30T03:47:58;6.25;;;4.43;;
41329;SDS011;34792;52.154;10.374;2022-09-30T03:50:27;3.85;;;2.45;;
41329;SDS011;34792;52.154;10.374;2022-09-30T03:52:53;5.43;;;3.25;;
41329;SDS011;34792;52.154;10.374;2022-09-30T03:55:18;7.60;;;3.95;;
41329;SDS011;34792;52.154;10.374;2022-09-30T03:57:46;5.97;;;3.13;;
41329;SDS011;34792;52.154;10.374;2022-09-30T04:00:13;3.80;;;2.92;;
41329;SDS011;34792;52.154;10.374;2022-09-30T04:02:39;5.97;;;3.03;;
41329;SDS011;34792;52.154;10.374;2022-09-30T04:05:05;7.25;;;2.95;;
41329;SDS011;34792;52.154;10.374;2022-09-30T04:07:32;4.85;;;3.03;;
41329;SDS011;34792;52.154;10.374;2022-09-30T04:09:58;5.80;;;3.28;;
41329;SDS011;34792;52.154;10.374;2022-09-30T04:12:23;6.20;;;2.83;;
41329;SDS011;34792;52.154;10.374;2022-09-30T04:14:49;4.55;;;2.78;;
41329;SDS011;34792;52.154;10.374;2022-09-30T04:17:15;3.42;;;1.85;;
41329;SDS011;34792;52.154;10.374;2022-09-30T04:19:41;3.80;;;2.40;;
41329;SDS011;34792;52.154;10.374;2022-09-30T04:22:06;5.53;;;2.38;;
41329;SDS011;34792;52.154;10.374;2022-09-30T04:24:32;4.22;;;2.78;;
41329;SDS011;34792;52.154;10.374;2022-09-30T04:26:58;6.40;;;2.65;;
41329;SDS011;34792;52.154;10.374;2022-09-30T04:29:24;6.90;;;2.53;;
41329;SDS011;34792;52.154;10.374;2022-09-30T04:31:50;3.40;;;2.40;;
41329;SDS011;34792;52.154;10.374;2022-09-30T04:34:15;7.22;;;3.15;;
41329;SDS011;34792;52.154;10.374;2022-09-30T04:36:41;3.63;;;2.55;;
41329;SDS011;34792;52.154;10.374;2022-09-30T04:39:07;5.85;;;3.22;;
41329;SDS011;34792;52.154;10.374;2022-09-30T04:41:32;8.10;;;3.78;;
41329;SDS011;34792;52.154;10.374;2022-09-30T04:43:58;30.00;;;3.42;;
41329;SDS011;34792;52.154;10.374;2022-09-30T04:46:23;9.10;;;2.95;;
41329;SDS011;34792;52.154;10.374;2022-09-30T04:48:49;3.95;;;2.72;;
41329;SDS011;34792;52.154;10.374;2022-09-30T04:51:16;2.58;;;1.58;;
41329;SDS011;34792;52.154;10.374;2022-09-30T04:53:43;2.63;;;1.35;;
41329;SDS011;34792;52.154;10.374;2022-09-30T04:56:09;2.10;;;1.33;;
41329;SDS011;34792;52.154;10.374;2022-09-30T04:58:35;4.40;;;1.92;;
41329;SDS011;34792;52.154;10.374;2022-09-30T05:01:05;4.45;;;2.15;;
41329;SDS011;34792;52.154;10.374;2022-09-30T05:03:31;3.58;;;1.92;;
41329;SDS011;34792;52.154;10.374;2022-09-30T05:05:57;3.08;;;1.77;;
41329;SDS011;34792;52.154;10.374;2022-09-30T05:08:23;2.17;;;1.30;;
41329;SDS011;34792;52.154;10.374;2022-09-30T05:10:52;3.38;;;1.17;;
41329;SDS011;34792;52.154;10.374;2022-09-30T05:13:23;5.32;;;1.40;;
41329;SDS011;34792;52.154;10.374;2022-09-30T05:15:50;7.32;;;2.35;;
41329;SDS011;34792;52.154;10.374;2022-09-30T05:18:16;4.40;;;1.85;;
41329;SDS011;34792;52.154;10.374;2022-09-30T05:20:43;3.03;;;1.85;;
41329;SDS011;34792;52.154;10.374;2022-09-30T05:23:09;3.13;;;1.50;;
41329;SDS011;34792;52.154;10.374;2022-09-30T05:25:34;5.32;;;1.50;;
41329;SDS011;34792;52.154;10.374;2022-09-30T05:28:00;3.13;;;1.77;;
41329;SDS011;34792;52.154;10.374;2022-09-30T05:30:26;7.45;;;1.90;;
41329;SDS011;34792;52.154;10.374;2022-09-30T05:32:52;5.10;;;1.95;;
41329;SDS011;34792;52.154;10.374;2022-09-30T05:35:18;3.53;;;2.22;;
41329;SDS011;34792;52.154;10.374;2022-09-30T05:37:43;2.60;;;1.38;;
41329;SDS011;34792;52.154;10.374;2022-09-30T05:40:09;5.80;;;1.60;;
41329;SDS011;34792;52.154;10.374;2022-09-30T05:42:34;3.60;;;1.75;;
41329;SDS011;34792;52.154;10.374;2022-09-30T05:45:02;4.93;;;1.98;;
41329;SDS011;34792;52.154;10.374;2022-09-30T05:47:31;6.95;;;2.38;;
41329;SDS011;34792;52.154;10.374;2022-09-30T05:49:57;4.35;;;1.40;;
41329;SDS011;34792;52.154;10.374;2022-09-30T05:52:22;2.30;;;1.30;;
41329;SDS011;34792;52.154;10.374;2022-09-30T05:54:48;3.35;;;1.65;;
41329;SDS011;34792;52.154;10.374;2022-09-30T05:57:14;4.30;;;1.90;;
41329;SDS011;34792;52.154;10.374;2022-09-30T05:59:40;2.47;;;1.58;;
41329;SDS011;34792;52.154;10.374;2022-09-30T06:02:07;2.50;;;1.42;;
41329;SDS011;34792;52.154;10.374;2022-09-30T06:04:33;4.18;;;1.65;;
41329;SDS011;34792;52.154;10.374;2022-09-30T06:06:59;3.70;;;1.98;;
41329;SDS011;34792;52.154;10.374;2022-09-30T06:09:24;2.50;;;1.80;;
41329;SDS011;34792;52.154;10.374;2022-09-30T06:11:50;4.70;;;1.95;;
41329;SDS011;34792;52.154;10.374;2022-09-30T06:14:16;6.63;;;2.13;;
41329;SDS011;34792;52.154;10.374;2022-09-30T06:16:44;4.47;;;1.60;;
41329;SDS011;34792;52.154;10.374;2022-09-30T06:19:09;2.95;;;1.33;;
41329;SDS011;34792;52.154;10.374;2022-09-30T06:21:35;4.63;;;1.70;;
41329;SDS011;34792;52.154;10.374;2022-09-30T06:24:01;3.70;;;1.85;;
41329;SDS011;34792;52.154;10.374;2022-09-30T06:26:26;3.80;;;1.27;;
41329;SDS011;34792;52.154;10.374;2022-09-30T06:28:52;8.73;;;1.90;;
41329;SDS011;34792;52.154;10.374;2022-09-30T06:31:18;2.83;;;1.27;;
41329;SDS011;34792;52.154;10.374;2022-09-30T06:33:43;2.78;;;1.23;;
41329;SDS011;34792;52.154;10.374;2022-09-30T06:36:09;4.30;;;1.88;;
41329;SDS011;34792;52.154;10.374;2022-09-30T06:38:35;4.25;;;1.70;;
41329;SDS011;34792;52.154;10.374;2022-09-30T06:41:04;2.45;;;1.40;;
41329;SDS011;34792;52.154;10.374;2022-09-30T06:43:30;2.28;;;1.30;;
41329;SDS011;34792;52.154;10.374;2022-09-30T06:45:56;2.42;;;1.40;;
41329;SDS011;34792;52.154;10.374;2022-09-30T06:48:22;3.00;;;1.75;;
41329;SDS011;34792;52.154;10.374;2022-09-30T06:50:47;5.22;;;2.05;;
41329;SDS011;34792;52.154;10.374;2022-09-30T06:53:13;3.30;;;1.25;;
41329;SDS011;34792;52.154;10.374;2022-09-30T06:55:39;5.10;;;1.90;;
41329;SDS011;34792;52.154;10.374;2022-09-30T06:58:05;1.85;;;1.13;;
41329;SDS011;34792;52.154;10.374;2022-09-30T07:00:32;3.35;;;1.85;;
41329;SDS011;34792;52.154;10.374;2022-09-30T07:02:58;4.70;;;1.48;;
41329;SDS011;34792;52.154;10.374;2022-09-30T07:05:24;3.60;;;1.60;;
41329;SDS011;34792;52.154;10.374;2022-09-30T07:07:50;1.90;;;1.00;;
41329;SDS011;34792;52.154;10.374;2022-09-30T07:10:17;1.80;;;1.00;;
41329;SDS011;34792;52.154;10.374;2022-09-30T07:12:43;2.30;;;1.30;;
41329;SDS011;34792;52.154;10.374;2022-09-30T07:15:09;2.15;;;1.40;;
41329;SDS011;34792;52.154;10.374;2022-09-30T07:17:34;1.85;;;1.15;;
41329;SDS011;34792;52.154;10.374;2022-09-30T07:20:00;2.28;;;1.38;;
41329;SDS011;34792;52.154;10.374;2022-09-30T07:22:25;4.03;;;1.83;;
41329;SDS011;34792;52.154;10.374;2022-09-30T07:24:51;2.55;;;1.48;;
41329;SDS011;34792;52.154;10.374;2022-09-30T07:27:17;2.80;;;1.42;;
41329;SDS011;34792;52.154;10.374;2022-09-30T07:29:43;3.25;;;1.40;;
41329;SDS011;34792;52.154;10.374;2022-09-30T07:32:09;2.63;;;1.60;;
41329;SDS011;34792;52.154;10.374;2022-09-30T07:34:35;2.85;;;1.83;;
41329;SDS011;34792;52.154;10.374;2022-09-30T07:37:01;3.45;;;1.80;;
41329;SDS011;34792;52.154;10.374;2022-09-30T07:39:28;2.42;;;1.45;;
41329;SDS011;34792;52.154;10.374;2022-09-30T07:41:55;2.08;;;1.08;;
41329;SDS011;34792;52.154;10.374;2022-09-30T07:44:20;4.65;;;1.63;;
41329;SDS011;34792;52.154;10.374;2022-09-30T07:46:46;2.22;;;1.15;;
41329;SDS011;34792;52.154;10.374;2022-09-30T07:49:13;1.67;;;1.20;;
41329;SDS011;34792;52.154;10.374;2022-09-30T07:51:41;1.65;;;1.08;;
41329;SDS011;34792;52.154;10.374;2022-09-30T07:54:13;2.72;;;1.77;;
41329;SDS011;34792;52.154;10.374;2022-09-30T07:56:41;4.20;;;1.75;;
41329;SDS011;34792;52.154;10.374;2022-09-30T07:59:08;2.92;;;1.63;;
41329;SDS011;34792;52.154;10.374;2022-09-30T08:01:34;1.50;;;0.90;;
41329;SDS011;34792;52.154;10.374;2022-09-30T08:04:01;2.08;;;1.20;;
41329;SDS011;34792;52.154;10.374;2022-09-30T08:06:28;2.20;;;1.27;;
41329;SDS011;34792;52.154;10.374;2022-09-30T08:08:55;2.55;;;1.65;;
41329;SDS011;34792;52.154;10.374;2022-09-30T08:11:22;1.65;;;1.02;;
41329;SDS011;34792;52.154;10.374;2022-09-30T08:13:51;2.60;;;1.23;;
41329;SDS011;34792;52.154;10.374;2022-09-30T08:16:18;2.50;;;1.50;;
41329;SDS011;34792;52.154;10.374;2022-09-30T08:18:44;2.72;;;1.70;;
41329;SDS011;34792;52.154;10.374;2022-09-30T08:21:09;1.65;;;1.13;;
41329;SDS011;34792;52.154;10.374;2022-09-30T08:23:35;2.33;;;1.50;;
41329;SDS011;34792;52.154;10.374;2022-09-30T08:26:02;2.58;;;1.38;;
41329;SDS011;34792;52.154;10.374;2022-09-30T08:28:31;2.10;;;1.38;;
41329;SDS011;34792;52.154;10.374;2022-09-30T08:33:33;2.30;;;1.23;;
41329;SDS011;34792;52.154;10.374;2022-09-30T08:36:00;1.88;;;1.20;;
41329;SDS011;34792;52.154;10.374;2022-09-30T08:38:27;2.05;;;1.25;;
41329;SDS011;34792;52.154;10.374;2022-09-30T08:47:00;2.10;;;1.20;;
41329;SDS011;34792;52.154;10.374;2022-09-30T08:52:30;2.25;;;1.30;;
41329;SDS011;34792;52.154;10.374;2022-09-30T08:55:01;1.75;;;0.90;;
41329;SDS011;34792;52.154;10.374;2022-09-30T08:57:27;2.05;;;1.27;;
41329;SDS011;34792;52.154;10.374;2022-09-30T09:00:00;2.25;;;1.02;;
41329;SDS011;34792;52.154;10.374;2022-09-30T09:02:44;1.95;;;1.20;;
41329;SDS011;34792;52.154;10.374;2022-09-30T09:10:47;2.97;;;1.55;;
41329;SDS011;34792;52.154;10.374;2022-09-30T09:24:21;1.77;;;1.15;;
41329;SDS011;34792;52.154;10.374;2022-09-30T09:26:48;2.67;;;1.20;;
41329;SDS011;34792;52.154;10.374;2022-09-30T09:32:19;2.22;;;0.93;;
41329;SDS011;34792;52.154;10.374;2022-09-30T09:34:49;3.35;;;1.45;;
41329;SDS011;34792;52.154;10.374;2022-09-30T09:47:28;2.73;;;1.07;;
41329;SDS011;34792;52.154;10.374;2022-09-30T09:50:00;1.52;;;1.02;;
41329;SDS011;34792;52.154;10.374;2022-09-30T09:55:40;2.03;;;1.00;;
41329;SDS011;34792;52.154;10.374;2022-09-30T09:58:08;1.50;;;0.80;;
41329;SDS011;34792;52.154;10.374;2022-09-30T10:00:35;1.65;;;1.10;;
41329;SDS011;34792;52.154;10.374;2022-09-30T10:03:17;1.73;;;1.00;;
41329;SDS011;34792;52.154;10.374;2022-09-30T10:08:26;1.60;;;0.90;;
41329;SDS011;34792;52.154;10.374;2022-09-30T10:10:56;2.35;;;1.05;;
41329;SDS011;34792;52.154;10.374;2022-09-30T10:13:24;2.67;;;1.45;;
41329;SDS011;34792;52.154;10.374;2022-09-30T10:15:56;1.75;;;0.93;;
41329;SDS011;34792;52.154;10.374;2022-09-30T10:18:27;1.50;;;0.93;;
41329;SDS011;34792;52.154;10.374;2022-09-30T10:20:58;1.92;;;1.33;;
41329;SDS011;34792;52.154;10.374;2022-09-30T10:23:39;2.15;;;1.15;;
41329;SDS011;34792;52.154;10.374;2022-09-30T10:28:48;3.15;;;1.23;;
41329;SDS011;34792;52.154;10.374;2022-09-30T10:33:58;2.47;;;1.25;;
41329;SDS011;34792;52.154;10.374;2022-09-30T10:39:04;2.15;;;1.23;;
41329;SDS011;34792;52.154;10.374;2022-09-30T10:41:32;1.77;;;1.00;;
41329;SDS011;34792;52.154;10.374;2022-09-30T10:44:00;1.63;;;1.02;;
41329;SDS011;34792;52.154;10.374;2022-09-30T10:48:59;2.05;;;1.35;;
41329;SDS011;34792;52.154;10.374;2022-09-30T10:51:31;3.95;;;1.55;;
41329;SDS011;34792;52.154;10.374;2022-09-30T10:53:58;1.70;;;0.90;;
41329;SDS011;34792;52.154;10.374;2022-09-30T10:56:34;1.55;;;0.88;;
41329;SDS011;34792;52.154;10.374;2022-09-30T10:59:02;1.67;;;1.02;;
41329;SDS011;34792;52.154;10.374;2022-09-30T11:01:30;1.73;;;1.00;;
41329;SDS011;34792;52.154;10.374;2022-09-30T11:06:36;1.58;;;0.85;;
41329;SDS011;34792;52.154;10.374;2022-09-30T11:09:16;1.60;;;0.90;;
41329;SDS011;34792;52.154;10.374;2022-09-30T11:11:51;2.65;;;1.05;;
41329;SDS011;34792;52.154;10.374;2022-09-30T11:15:05;1.75;;;0.90;;
41329;SDS011;34792;52.154;10.374;2022-09-30T11:20:11;1.52;;;0.90;;
41329;SDS011;34792;52.154;10.374;2022-09-30T11:25:33;1.58;;;1.15;;
41329;SDS011;34792;52.154;10.374;2022-09-30T11:30:47;1.60;;;0.93;;
41329;SDS011;34792;52.154;10.374;2022-09-30T11:41:49;2.10;;;1.00;;
41329;SDS011;34792;52.154;10.374;2022-09-30T11:44:39;2.63;;;1.48;;
41329;SDS011;34792;52.154;10.374;2022-09-30T11:52:28;2.05;;;1.38;;
41329;SDS011;34792;52.154;10.374;2022-09-30T11:58:08;2.17;;;0.70;;
41329;SDS011;34792;52.154;10.374;2022-09-30T12:00:36;1.33;;;0.70;;
41329;SDS011;34792;52.154;10.374;2022-09-30T12:03:12;2.25;;;1.33;;
41329;SDS011;34792;52.154;10.374;2022-09-30T12:05:44;1.80;;;0.90;;
41329;SDS011;34792;52.154;10.374;2022-09-30T12:08:19;2.15;;;1.00;;
41329;SDS011;34792;52.154;10.374;2022-09-30T12:10:55;1.83;;;1.10;;
41329;SDS011;34792;52.154;10.374;2022-09-30T12:13:37;1.48;;;1.10;;
41329;SDS011;34792;52.154;10.374;2022-09-30T12:16:10;1.30;;;0.85;;
41329;SDS011;34792;52.154;10.374;2022-09-30T12:18:45;1.38;;;0.68;;
41329;SDS011;34792;52.154;10.374;2022-09-30T12:21:20;2.22;;;0.95;;
41329;SDS011;34792;52.154;10.374;2022-09-30T12:23:55;1.60;;;0.98;;
41329;SDS011;34792;52.154;10.374;2022-09-30T12:26:27;1.92;;;1.10;;
41329;SDS011;34792;52.154;10.374;2022-09-30T12:28:53;1.50;;;0.82;;
41329;SDS011;34792;52.154;10.374;2022-09-30T12:37:02;1.70;;;0.90;;
41329;SDS011;34792;52.154;10.374;2022-09-30T12:42:23;1.85;;;1.10;;
41329;SDS011;34792;52.154;10.374;2022-09-30T12:45:16;1.08;;;0.80;;
41329;SDS011;34792;52.154;10.374;2022-09-30T12:48:02;1.40;;;0.80;;
41329;SDS011;34792;52.154;10.374;2022-09-30T12:50:39;1.73;;;0.80;;
41329;SDS011;34792;52.154;10.374;2022-09-30T12:53:49;1.50;;;0.80;;
41329;SDS011;34792;52.154;10.374;2022-09-30T12:56:03;1.55;;;0.80;;
41329;SDS011;34792;52.154;10.374;2022-09-30T12:58:35;2.40;;;1.10;;
41329;SDS011;34792;52.154;10.374;2022-09-30T13:03:51;1.67;;;1.00;;
41329;SDS011;34792;52.154;10.374;2022-09-30T13:06:20;1.70;;;1.02;;
41329;SDS011;34792;52.154;10.374;2022-09-30T13:09:16;1.17;;;0.50;;
41329;SDS011;34792;52.154;10.374;2022-09-30T13:11:42;1.52;;;0.73;;
41329;SDS011;34792;52.154;10.374;2022-09-30T13:14:16;1.48;;;0.90;;
41329;SDS011;34792;52.154;10.374;2022-09-30T13:27:34;1.42;;;0.80;;
41329;SDS011;34792;52.154;10.374;2022-09-30T13:32:40;1.48;;;0.70;;
41329;SDS011;34792;52.154;10.374;2022-09-30T13:35:29;2.08;;;1.13;;
41329;SDS011;34792;52.154;10.374;2022-09-30T13:46:32;4.50;;;1.45;;
41329;SDS011;34792;52.154;10.374;2022-09-30T13:49:00;7.85;;;1.50;;
41329;SDS011;34792;52.154;10.374;2022-09-30T13:51:36;2.42;;;1.23;;
41329;SDS011;34792;52.154;10.374;2022-09-30T13:54:05;2.90;;;1.13;;
41329;SDS011;34792;52.154;10.374;2022-09-30T13:56:35;1.53;;;0.83;;
41329;SDS011;34792;52.154;10.374;2022-09-30T14:04:49;2.80;;;1.10;;
41329;SDS011;34792;52.154;10.374;2022-09-30T14:07:39;1.42;;;0.80;;
41329;SDS011;34792;52.154;10.374;2022-09-30T14:13:21;1.30;;;0.77;;
41329;SDS011;34792;52.154;10.374;2022-09-30T14:19:11;2.28;;;1.23;;
41329;SDS011;34792;52.154;10.374;2022-09-30T14:21:58;4.43;;;0.70;;
41329;SDS011;34792;52.154;10.374;2022-09-30T14:30:03;2.67;;;1.00;;
41329;SDS011;34792;52.154;10.374;2022-09-30T14:32:33;5.07;;;1.00;;
41329;SDS011;34792;52.154;10.374;2022-09-30T14:35:07;4.10;;;1.15;;
41329;SDS011;34792;52.154;10.374;2022-09-30T14:37:37;2.38;;;1.17;;
41329;SDS011;34792;52.154;10.374;2022-09-30T14:40:09;2.30;;;1.13;;
41329;SDS011;34792;52.154;10.374;2022-09-30T14:42:37;8.17;;;1.00;;
41329;SDS011;34792;52.154;10.374;2022-09-30T14:45:05;2.90;;;1.63;;
41329;SDS011;34792;52.154;10.374;2022-09-30T14:47:32;1.83;;;0.88;;
41329;SDS011;34792;52.154;10.374;2022-09-30T14:50:02;2.65;;;1.25;;
41329;SDS011;34792;52.154;10.374;2022-09-30T14:52:35;2.50;;;1.43;;
41329;SDS011;34792;52.154;10.374;2022-09-30T14:55:02;3.13;;;1.40;;
41329;SDS011;34792;52.154;10.374;2022-09-30T14:57:28;3.97;;;1.23;;
41329;SDS011;34792;52.154;10.374;2022-09-30T15:00:17;4.03;;;1.02;;
41329;SDS011;34792;52.154;10.374;2022-09-30T15:02:47;1.27;;;0.60;;
41329;SDS011;34792;52.154;10.374;2022-09-30T15:05:13;3.28;;;1.00;;
41329;SDS011;34792;52.154;10.374;2022-09-30T15:07:40;1.77;;;1.10;;
41329;SDS011;34792;52.154;10.374;2022-09-30T15:10:06;1.80;;;1.10;;
41329;SDS011;34792;52.154;10.374;2022-09-30T15:12:42;4.00;;;2.05;;
41329;SDS011;34792;52.154;10.374;2022-09-30T15:17:59;2.60;;;0.85;;
41329;SDS011;34792;52.154;10.374;2022-09-30T15:22:57;11.25;;;1.77;;
41329;SDS011;34792;52.154;10.374;2022-09-30T15:25:27;2.80;;;1.63;;
41329;SDS011;34792;52.154;10.374;2022-09-30T15:27:53;3.03;;;1.50;;
41329;SDS011;34792;52.154;10.374;2022-09-30T15:30:23;3.35;;;1.15;;
41329;SDS011;34792;52.154;10.374;2022-09-30T15:32:59;7.70;;;1.40;;
41329;SDS011;34792;52.154;10.374;2022-09-30T15:35:26;3.38;;;1.55;;
41329;SDS011;34792;52.154;10.374;2022-09-30T15:37:52;4.70;;;1.20;;
41329;SDS011;34792;52.154;10.374;2022-09-30T15:40:19;2.13;;;0.85;;
41329;SDS011;34792;52.154;10.374;2022-09-30T15:43:05;3.45;;;1.17;;
41329;SDS011;34792;52.154;10.374;2022-09-30T15:45:33;3.55;;;0.88;;
41329;SDS011;34792;52.154;10.374;2022-09-30T15:48:30;1.58;;;0.93;;
41329;SDS011;34792;52.154;10.374;2022-09-30T15:50:58;3.55;;;1.13;;
41329;SDS011;34792;52.154;10.374;2022-09-30T15:53:27;1.80;;;1.13;;
41329;SDS011;34792;52.154;10.374;2022-09-30T15:56:15;2.53;;;1.05;;
41329;SDS011;34792;52.154;10.374;2022-09-30T15:59:05;3.05;;;1.55;;
41329;SDS011;34792;52.154;10.374;2022-09-30T16:01:38;3.40;;;1.10;;
41329;SDS011;34792;52.154;10.374;2022-09-30T16:09:20;2.15;;;0.82;;
41329;SDS011;34792;52.154;10.374;2022-09-30T16:12:14;1.33;;;0.65;;
41329;SDS011;34792;52.154;10.374;2022-09-30T16:14:47;1.15;;;0.60;;
41329;SDS011;34792;52.154;10.374;2022-09-30T16:17:22;2.20;;;1.23;;
41329;SDS011;34792;52.154;10.374;2022-09-30T16:19:54;2.20;;;0.95;;
41329;SDS011;34792;52.154;10.374;2022-09-30T16:25:03;1.92;;;0.90;;
41329;SDS011;34792;52.154;10.374;2022-09-30T16:27:34;1.58;;;0.80;;
41329;SDS011;34792;52.154;10.374;2022-09-30T16:30:00;2.90;;;1.25;;
41329;SDS011;34792;52.154;10.374;2022-09-30T16:32:27;1.58;;;0.70;;
41329;SDS011;34792;52.154;10.374;2022-09-30T16:34:55;5.60;;;1.42;;
41329;SDS011;34792;52.154;10.374;2022-09-30T16:37:21;4.30;;;1.15;;
41329;SDS011;34792;52.154;10.374;2022-09-30T16:39:46;2.25;;;1.27;;
41329;SDS011;34792;52.154;10.374;2022-09-30T16:42:13;3.17;;;1.33;;
41329;SDS011;34792;52.154;10.374;2022-09-30T16:44:39;4.57;;;1.60;;
41329;SDS011;34792;52.154;10.374;2022-09-30T16:47:06;4.90;;;1.95;;
